Time;durP1;ratioP1;P1;durP2;ratioP2;P2;SDS_P1;SDS_P2;PMS_P1;PMS_P2;Temp;Humidity;BMP_temperature;BMP_pressure;BME280_temperature;BME280_humidity;BME280_pressure;Samples;Min_cycle;Max_cycle;Signal;HPM_P1;HPM_P2
2023/04/03 00:00:28;;;;;;;4.00;2.03;;;;;;;7.93;55.56;103178.00;5060496;28;20031;-49
2023/04/03 00:02:53;;;;;;;5.68;2.30;;;;;;;7.97;56.01;103186.91;5064796;28;20028;-47
2023/04/03 00:05:19;;;;;;;4.90;1.98;;;;;;;7.85;55.92;103179.25;5060898;28;20506;-44
2023/04/03 00:07:44;;;;;;;3.70;2.00;;;;;;;7.84;56.16;103186.94;5061731;28;20125;-43
2023/04/03 00:10:10;;;;;;;3.10;1.95;;;;;;;7.84;55.91;103182.66;5063416;28;20040;-43
2023/04/03 00:12:35;;;;;;;4.50;2.15;;;;;;;7.84;56.10;103186.94;5059410;28;20032;-47
2023/04/03 00:15:00;;;;;;;4.28;2.03;;;;;;;7.83;55.98;103186.03;5061873;28;20043;-44
2023/04/03 00:17:26;;;;;;;3.47;2.00;;;;;;;7.79;56.16;103183.19;5065182;28;20029;-45
2023/04/03 00:19:51;;;;;;;4.40;2.10;;;;;;;7.81;55.88;103190.25;5060259;28;20038;-44
2023/04/03 00:22:16;;;;;;;5.28;2.08;;;;;;;7.72;56.18;103181.91;5064960;28;20064;-43
2023/04/03 00:24:42;;;;;;;3.15;1.83;;;;;;;7.68;56.37;103193.78;5060958;28;20131;-45
2023/04/03 00:27:07;;;;;;;3.80;2.17;;;;;;;7.72;56.20;103182.81;5063579;28;20036;-43
2023/04/03 00:29:32;;;;;;;4.15;2.10;;;;;;;7.69;56.37;103184.28;5059899;28;20036;-44
2023/04/03 00:31:57;;;;;;;4.05;2.03;;;;;;;7.68;56.22;103183.38;5063339;28;20540;-46
2023/04/03 00:34:23;;;;;;;4.45;2.10;;;;;;;7.61;56.50;103191.63;5064174;28;20211;-44
2023/04/03 00:36:48;;;;;;;4.65;2.00;;;;;;;7.46;56.81;103187.16;5061451;28;20029;-44
2023/04/03 00:39:13;;;;;;;3.72;2.03;;;;;;;7.41;57.01;103189.47;5064607;28;20035;-44
2023/04/03 00:41:39;;;;;;;4.22;2.30;;;;;;;7.33;56.76;103188.97;5063545;28;20051;-43
2023/04/03 00:44:27;;;;;;;4.53;2.00;;;;;;;7.55;56.39;103190.34;5068214;28;20055;-45
2023/04/03 00:46:52;;;;;;;4.07;2.00;;;;;;;7.55;56.20;103193.84;5024459;28;20082;-47
2023/04/03 00:49:18;;;;;;;5.95;2.35;;;;;;;7.43;56.67;103195.69;5067486;28;20461;-47
2023/04/03 00:51:43;;;;;;;4.22;2.10;;;;;;;7.49;56.48;103192.56;5065833;28;20029;-46
2023/04/03 00:54:09;;;;;;;5.47;2.10;;;;;;;7.42;56.81;103191.28;5066091;28;20046;-44
2023/04/03 00:56:36;;;;;;;5.38;2.00;;;;;;;7.46;56.60;103187.16;5063534;28;20032;-44
2023/04/03 00:59:08;;;;;;;3.58;2.08;;;;;;;7.37;56.87;103191.78;5069764;28;20054;-43
2023/04/03 01:01:34;;;;;;;5.35;2.15;;;;;;;7.24;57.10;103196.22;5066772;28;20124;-43
2023/04/03 01:04:02;;;;;;;3.83;2.00;;;;;;;7.32;57.07;103205.34;5067664;28;20089;-49
2023/04/03 01:06:32;;;;;;;5.38;2.15;;;;;;;7.36;57.07;103200.38;5065445;28;20086;-45
2023/04/03 01:08:59;;;;;;;4.32;2.15;;;;;;;7.29;56.73;103206.88;5058726;28;20032;-47
2023/04/03 01:11:24;;;;;;;4.45;2.10;;;;;;;7.29;57.24;103207.78;5063258;28;20102;-43
2023/04/03 01:13:50;;;;;;;4.38;2.17;;;;;;;7.17;57.54;103209.56;5058829;28;20040;-43
2023/04/03 01:16:15;;;;;;;4.88;2.30;;;;;;;7.20;57.32;103214.03;5064667;28;20032;-47
2023/04/03 01:18:42;;;;;;;5.72;2.22;;;;;;;7.09;57.61;103215.06;5062777;28;20028;-44
2023/04/03 01:21:15;;;;;;;5.55;2.28;;;;;;;7.25;57.09;103208.38;5066809;28;20591;-44
2023/04/03 01:24:02;;;;;;;4.72;2.30;;;;;;;7.24;56.86;103204.00;5062949;28;20070;-49
2023/04/03 01:26:28;;;;;;;3.88;2.15;;;;;;;7.20;57.22;103207.16;5066769;28;20115;-52
2023/04/03 01:28:55;;;;;;;5.43;2.30;;;;;;;7.17;57.27;103208.69;5063553;28;20445;-45
2023/04/03 01:31:35;;;;;;;4.03;2.15;;;;;;;7.20;57.05;103207.16;5067362;28;20036;-44
2023/04/03 01:34:02;;;;;;;6.68;2.42;;;;;;;6.99;57.62;103207.50;5062681;28;20110;-47
2023/04/03 01:36:29;;;;;;;5.38;2.00;;;;;;;7.16;57.33;103217.25;5066726;28;20029;-45
2023/04/03 01:38:56;;;;;;;4.28;2.13;;;;;;;7.17;57.11;103206.09;5063574;28;20035;-47
2023/04/03 01:41:21;;;;;;;4.88;2.33;;;;;;;7.07;57.39;103211.50;5066401;28;20483;-45
2023/04/03 01:43:48;;;;;;;5.00;2.22;;;;;;;7.04;57.36;103206.09;5062804;28;20079;-46
2023/04/03 01:46:14;;;;;;;6.57;2.25;;;;;;;7.00;57.87;103210.19;5066187;28;20079;-46
2023/04/03 01:48:40;;;;;;;5.72;2.30;;;;;;;6.93;58.18;103208.00;5063012;28;20039;-45
2023/04/03 01:51:05;;;;;;;5.85;2.35;;;;;;;6.90;57.91;103206.09;5071045;28;20032;-44
2023/04/03 01:53:31;;;;;;;3.58;2.03;;;;;;;6.88;58.24;103205.09;5068996;28;20032;-46
2023/04/03 01:55:56;;;;;;;4.90;2.40;;;;;;;6.81;58.41;103208.09;5072118;28;20044;-43
2023/04/03 01:58:21;;;;;;;5.05;2.05;;;;;;;6.74;58.72;103212.75;5072666;28;20036;-43
2023/04/03 02:00:47;;;;;;;5.68;2.20;;;;;;;6.81;58.64;103208.09;5068787;28;20162;-42
2023/04/03 02:03:13;;;;;;;4.30;2.28;;;;;;;6.85;58.32;103210.06;5066951;28;20120;-47
2023/04/03 02:05:38;;;;;;;3.22;2.00;;;;;;;6.79;58.85;103211.38;5062921;28;20036;-48
2023/04/03 02:08:04;;;;;;;4.82;2.20;;;;;;;6.81;58.17;103215.88;5066926;28;20040;-45
2023/04/03 02:10:29;;;;;;;8.98;2.70;;;;;;;6.75;58.65;103220.66;5062377;28;20029;-43
2023/04/03 02:12:54;;;;;;;4.35;2.33;;;;;;;6.76;58.87;103224.16;5066718;28;20048;-46
2023/04/03 02:15:20;;;;;;;5.78;2.17;;;;;;;6.77;58.67;103224.22;5066731;28;20029;-45
2023/04/03 02:17:45;;;;;;;5.35;2.30;;;;;;;6.74;58.66;103228.31;5063888;28;20047;-44
2023/04/03 02:20:11;;;;;;;4.20;2.05;;;;;;;6.65;59.06;103222.53;5067249;28;20383;-46
2023/04/03 02:22:36;;;;;;;4.43;2.13;;;;;;;6.62;59.18;103228.41;5062008;28;20090;-49
2023/04/03 02:25:03;;;;;;;4.45;2.22;;;;;;;6.60;59.12;103235.16;5066106;28;20113;-43
2023/04/03 02:27:28;;;;;;;4.93;2.60;;;;;;;6.53;59.31;103233.84;5065644;28;20037;-46
2023/04/03 02:29:53;;;;;;;3.45;2.17;;;;;;;6.70;58.76;103231.53;5062581;28;20573;-46
2023/04/03 02:32:19;;;;;;;4.47;2.20;;;;;;;6.72;58.62;103235.09;5064608;28;20051;-45
2023/04/03 02:34:44;;;;;;;5.35;2.50;;;;;;;6.64;59.02;103239.78;5061290;28;20039;-44
2023/04/03 02:37:09;;;;;;;4.32;2.08;;;;;;;6.49;59.02;103241.34;5065435;28;20109;-45
2023/04/03 02:39:35;;;;;;;6.80;2.40;;;;;;;6.60;59.04;103240.34;5061977;28;20028;-46
2023/04/03 02:42:00;;;;;;;5.22;2.63;;;;;;;6.53;58.89;103235.56;5064433;28;20025;-43
2023/04/03 02:44:25;;;;;;;5.38;2.38;;;;;;;6.59;58.64;103242.88;5067143;28;20043;-47
2023/04/03 02:46:51;;;;;;;5.32;2.30;;;;;;;6.60;58.52;103242.94;5062580;28;20040;-43
2023/04/03 02:49:16;;;;;;;4.25;2.42;;;;;;;6.60;58.64;103242.03;5066384;28;20054;-44
2023/04/03 02:51:42;;;;;;;4.70;2.53;;;;;;;6.38;58.85;103245.78;5063881;28;20127;-48
2023/04/03 02:54:08;;;;;;;4.15;2.35;;;;;;;6.53;58.79;103246.81;5066512;28;20028;-43
2023/04/03 02:56:34;;;;;;;5.40;2.42;;;;;;;6.46;59.18;103241.13;5063428;28;20509;-45
2023/04/03 02:58:59;;;;;;;5.30;2.50;;;;;;;6.51;59.51;103247.53;5067997;28;20033;-47
2023/04/03 03:01:28;;;;;;;6.47;2.50;;;;;;;6.47;58.90;103240.31;5066814;28;20127;-50
2023/04/03 03:03:53;;;;;;;4.82;2.30;;;;;;;6.42;59.18;103242.59;5060580;28;20054;-45
2023/04/03 03:06:19;;;;;;;4.85;2.50;;;;;;;6.40;59.18;103249.38;5063364;28;20449;-48
2023/04/03 03:08:44;;;;;;;5.68;2.30;;;;;;;6.34;59.42;103246.34;5060119;28;20039;-44
2023/04/03 03:11:10;;;;;;;6.47;2.72;;;;;;;6.34;59.56;103248.94;5063542;28;20032;-44
2023/04/03 03:13:35;;;;;;;7.30;2.45;;;;;;;6.30;59.42;103251.22;5059517;28;20043;-45
2023/04/03 03:16:01;;;;;;;6.57;2.50;;;;;;;6.24;59.67;103246.53;5063544;28;20037;-45
2023/04/03 03:18:28;;;;;;;3.72;2.20;;;;;;;6.20;59.58;103243.63;5064090;28;20090;-44
2023/04/03 03:20:56;;;;;;;4.22;2.55;;;;;;;6.23;60.20;103256.78;5060400;28;20032;-45
2023/04/03 03:23:22;;;;;;;5.82;2.65;;;;;;;6.16;60.13;103246.81;5063108;28;20036;-45
2023/04/03 03:25:48;;;;;;;5.07;2.60;;;;;;;6.17;60.47;103254.69;5059972;28;20418;-45
2023/04/03 03:28:13;;;;;;;6.68;2.30;;;;;;;6.19;60.12;103245.31;5063599;28;20078;-44
2023/04/03 03:30:38;;;;;;;4.47;2.45;;;;;;;6.14;60.26;103256.16;5060267;28;20028;-43
2023/04/03 03:33:04;;;;;;;5.75;2.60;;;;;;;6.10;59.91;103258.53;5062803;28;20036;-45
2023/04/03 03:35:29;;;;;;;6.25;2.47;;;;;;;6.04;60.70;103264.97;5061977;28;20141;-56
2023/04/03 03:37:55;;;;;;;6.75;2.35;;;;;;;6.05;60.23;103259.00;5063047;28;20025;-45
2023/04/03 03:40:20;;;;;;;4.18;2.17;;;;;;;5.98;60.62;103257.69;5062659;28;20570;-48
2023/04/03 03:42:45;;;;;;;6.07;2.40;;;;;;;5.85;61.03;103269.66;5060018;28;20494;-44
2023/04/03 03:45:11;;;;;;;5.05;2.35;;;;;;;5.87;61.29;103261.22;5064484;28;20059;-46
2023/04/03 03:47:36;;;;;;;5.63;2.30;;;;;;;5.94;61.41;103267.72;5061210;28;20036;-42
2023/04/03 03:50:03;;;;;;;6.72;2.65;;;;;;;5.86;61.45;103267.13;5064779;28;20043;-46
2023/04/03 03:52:29;;;;;;;5.60;2.33;;;;;;;5.95;61.44;103264.34;5061832;28;20039;-43
2023/04/03 03:54:55;;;;;;;10.70;2.53;;;;;;;5.88;61.85;103267.28;5061160;28;20032;-45
2023/04/03 03:57:21;;;;;;;4.78;2.60;;;;;;;5.91;61.47;103260.66;5063670;28;20402;-49
2023/04/03 03:59:47;;;;;;;5.13;2.70;;;;;;;5.85;61.50;103261.88;5060176;28;20395;-44
2023/04/03 04:02:12;;;;;;;5.93;2.42;;;;;;;5.89;61.28;103261.31;5065419;28;20028;-45
2023/04/03 04:04:38;;;;;;;7.32;2.78;;;;;;;5.88;61.73;103257.84;5064439;28;20411;-44
2023/04/03 04:07:03;;;;;;;5.55;2.90;;;;;;;5.84;61.48;103260.06;5066926;28;20036;-44
2023/04/03 04:09:29;;;;;;;6.22;2.60;;;;;;;5.83;60.94;103259.19;5065142;28;20105;-46
2023/04/03 04:11:54;;;;;;;4.80;2.65;;;;;;;5.78;61.07;103264.81;5061777;28;20029;-43
2023/04/03 04:14:22;;;;;;;4.40;2.50;;;;;;;5.70;61.33;103265.16;5063534;28;20075;-44
2023/04/03 04:16:48;;;;;;;5.95;2.70;;;;;;;5.69;61.63;103265.97;5060612;28;22946;-47
2023/04/03 04:19:13;;;;;;;7.53;2.60;;;;;;;5.69;62.10;103275.41;5063964;28;20446;-45
2023/04/03 04:21:39;;;;;;;5.57;2.50;;;;;;;5.67;61.74;103270.13;5060705;28;20223;-43
2023/04/03 04:24:05;;;;;;;5.57;2.70;;;;;;;5.63;62.13;103268.09;5063142;28;20076;-46
2023/04/03 04:26:30;;;;;;;5.07;2.80;;;;;;;5.61;62.25;103280.03;5062629;28;20029;-49
2023/04/03 04:28:55;;;;;;;5.90;3.50;;;;;;;5.66;61.99;103281.28;5059905;28;20426;-47
2023/04/03 04:31:21;;;;;;;11.23;5.43;;;;;;;5.60;62.30;103279.94;5062977;28;20532;-43
2023/04/03 04:33:46;;;;;;;10.07;5.90;;;;;;;5.58;62.12;103285.00;5059045;28;20060;-43
2023/04/03 04:36:11;;;;;;;5.97;3.60;;;;;;;5.51;62.12;103282.75;5063266;28;20033;-44
2023/04/03 04:38:38;;;;;;;7.20;3.50;;;;;;;5.64;61.96;103289.72;5058558;28;20371;-45
2023/04/03 04:41:04;;;;;;;9.07;2.95;;;;;;;5.60;62.21;103290.28;5062607;28;20073;-45
2023/04/03 04:43:29;;;;;;;6.70;2.75;;;;;;;5.56;62.79;103285.66;5063554;28;20036;-45
2023/04/03 04:46:04;;;;;;;5.35;2.45;;;;;;;5.55;63.06;103287.34;5059464;28;20025;-46
2023/04/03 04:48:30;;;;;;;5.22;2.80;;;;;;;5.59;62.47;103294.56;5058640;28;20040;-45
2023/04/03 04:50:55;;;;;;;5.22;2.58;;;;;;;5.67;62.20;103293.41;5065441;28;20554;-48
2023/04/03 04:53:21;;;;;;;6.22;2.88;;;;;;;5.51;63.32;103289.63;5068061;28;20518;-45
2023/04/03 04:55:46;;;;;;;6.45;2.65;;;;;;;5.59;62.53;103289.41;5064058;28;20037;-45
2023/04/03 04:58:11;;;;;;;6.95;2.80;;;;;;;5.58;62.63;103292.75;5071161;28;20406;-45
2023/04/03 05:00:37;;;;;;;5.60;2.63;;;;;;;5.62;62.44;103293.88;5069386;28;20035;-53
2023/04/03 05:03:02;;;;;;;7.90;2.78;;;;;;;5.59;62.88;103291.06;5072668;28;20106;-47
2023/04/03 05:05:27;;;;;;;7.07;2.65;;;;;;;5.56;62.59;103293.44;5070147;28;20068;-43
2023/04/03 05:07:53;;;;;;;6.15;2.90;;;;;;;5.55;62.78;103296.84;5067614;28;20039;-47
2023/04/03 05:10:18;;;;;;;6.68;3.10;;;;;;;5.53;62.70;103298.41;5074820;28;20029;-49
2023/04/03 05:12:43;;;;;;;5.93;2.90;;;;;;;5.50;62.62;103295.56;5070376;28;20052;-43
2023/04/03 05:15:09;;;;;;;5.40;2.97;;;;;;;5.50;62.92;103296.47;5067446;28;20032;-46
2023/04/03 05:17:34;;;;;;;5.32;3.00;;;;;;;5.43;62.89;103299.41;5062688;28;20033;-48
2023/04/03 05:20:00;;;;;;;5.53;2.90;;;;;;;5.50;63.18;103305.91;5066843;28;20032;-45
2023/04/03 05:22:25;;;;;;;5.85;3.03;;;;;;;5.48;63.58;103300.66;5067659;28;20082;-45
2023/04/03 05:24:50;;;;;;;6.13;2.88;;;;;;;5.56;63.76;103307.28;5061917;28;20040;-44
2023/04/03 05:27:16;;;;;;;8.02;3.28;;;;;;;5.59;63.33;103307.50;5065960;28;20055;-46
2023/04/03 05:29:43;;;;;;;6.35;3.10;;;;;;;5.60;62.88;103306.72;5081458;28;20078;-45
2023/04/03 05:32:09;;;;;;;6.22;3.20;;;;;;;5.61;63.04;103312.81;5086401;28;20494;-44
2023/04/03 05:34:34;;;;;;;6.57;3.20;;;;;;;5.68;63.35;103317.59;5081622;28;20032;-42
2023/04/03 05:37:00;;;;;;;6.97;3.03;;;;;;;5.60;63.34;103326.53;5085839;28;20028;-47
2023/04/03 05:39:25;;;;;;;5.18;3.10;;;;;;;5.71;63.62;103316.16;5086244;28;20055;-45
2023/04/03 05:41:50;;;;;;;8.00;2.92;;;;;;;5.77;63.49;103323.44;5082693;28;20086;-45
2023/04/03 05:44:16;;;;;;;8.32;2.95;;;;;;;5.78;63.28;103322.66;5085516;28;20029;-50
2023/04/03 05:46:41;;;;;;;6.55;3.20;;;;;;;5.84;62.93;103307.56;5082671;28;20055;-43
2023/04/03 05:49:06;;;;;;;7.15;3.53;;;;;;;5.80;63.48;103302.94;5086096;28;20036;-46
2023/04/03 05:51:36;;;;;;;6.93;3.10;;;;;;;5.79;63.30;103301.19;5086282;28;20036;-44
2023/04/03 05:54:09;;;;;;;5.68;3.10;;;;;;;5.47;64.16;103314.38;5082151;28;20045;-45
2023/04/03 05:56:35;;;;;;;5.97;3.05;;;;;;;5.76;64.14;103321.66;5082345;28;20036;-48
2023/04/03 05:59:00;;;;;;;8.35;3.13;;;;;;;5.99;62.98;103321.63;5072178;28;20047;-44
2023/04/03 06:01:26;;;;;;;8.13;3.30;;;;;;;5.93;62.95;103328.97;5091585;28;20032;-43
2023/04/03 06:03:51;;;;;;;7.72;3.28;;;;;;;5.85;62.68;103332.69;5085859;28;20040;-48
2023/04/03 06:06:17;;;;;;;5.82;3.33;;;;;;;6.11;62.41;103326.75;5091400;28;20036;-49
2023/04/03 06:08:43;;;;;;;5.72;3.17;;;;;;;6.13;62.32;103329.47;5087633;28;20258;-43
2023/04/03 06:11:08;;;;;;;7.28;3.20;;;;;;;5.99;62.11;103333.66;5089178;28;20111;-43
2023/04/03 06:13:34;;;;;;;6.55;3.10;;;;;;;5.69;62.85;103337.53;5082684;28;20111;-44
2023/04/03 06:16:00;;;;;;;7.80;3.35;;;;;;;6.24;62.02;103334.59;5085083;28;20490;-43
2023/04/03 06:18:26;;;;;;;6.70;3.30;;;;;;;6.44;61.33;103329.13;5085309;28;20036;-45
2023/04/03 06:20:51;;;;;;;6.85;3.30;;;;;;;6.50;61.27;103339.00;5080815;28;20032;-43
2023/04/03 06:23:17;;;;;;;6.78;3.35;;;;;;;6.41;61.43;103341.84;5083674;28;20028;-43
2023/04/03 06:25:42;;;;;;;6.00;3.00;;;;;;;6.53;61.23;103340.13;5062154;22;20085;-39
2023/04/03 06:28:09;;;;;;;6.55;3.20;;;;;;;6.81;60.59;103344.59;5063770;28;20529;-41
2023/04/03 06:30:36;;;;;;;7.47;3.15;;;;;;;6.87;60.25;103350.19;5065852;28;20111;-38
2023/04/03 06:33:01;;;;;;;9.30;3.30;;;;;;;7.00;60.90;103349.34;5071865;28;20028;-40
2023/04/03 06:35:28;;;;;;;7.75;3.15;;;;;;;7.32;60.87;103337.69;5098133;28;20028;-39
2023/04/03 06:37:53;;;;;;;6.78;3.25;;;;;;;8.22;58.00;103339.97;5101847;28;20416;-39
2023/04/03 06:40:22;;;;;;;5.57;2.92;;;;;;;9.73;54.25;103333.44;5108402;28;20038;-43
2023/04/03 06:42:47;;;;;;;7.25;2.80;;;;;;;11.12;49.75;103330.41;5097395;28;20489;-40
2023/04/03 06:45:13;;;;;;;6.53;2.90;;;;;;;11.60;47.08;103329.31;5101088;28;20039;-40
2023/04/03 06:47:38;;;;;;;5.97;2.90;;;;;;;12.92;43.69;103327.56;5081517;28;20032;-39
2023/04/03 06:50:04;;;;;;;6.32;2.65;;;;;;;14.00;39.01;103326.75;5103508;28;20119;-38
2023/04/03 06:52:29;;;;;;;7.22;2.83;;;;;;;13.73;39.44;103327.47;5101743;28;20055;-41
2023/04/03 06:54:57;;;;;;;6.75;2.70;;;;;;;13.90;40.74;103324.63;5110546;28;20063;-40
2023/04/03 06:57:24;;;;;;;8.05;2.63;;;;;;;13.79;38.65;103325.06;5110410;28;20080;-39
2023/04/03 06:59:49;;;;;;;5.80;2.60;;;;;;;14.31;38.26;103321.81;5087998;28;20042;-41
2023/04/03 07:02:15;;;;;;;5.20;2.53;;;;;;;14.74;37.53;103329.56;5106456;28;20024;-39
2023/04/03 07:04:40;;;;;;;5.25;2.50;;;;;;;14.72;37.17;103331.22;5102611;28;20062;-39
2023/04/03 07:07:05;;;;;;;5.70;2.58;;;;;;;14.69;37.03;103339.00;5105767;28;20401;-41
2023/04/03 07:09:31;;;;;;;6.75;2.78;;;;;;;14.60;37.65;103338.66;5100226;28;20035;-39
2023/04/03 07:11:56;;;;;;;5.32;2.50;;;;;;;15.21;35.76;103340.78;5105505;28;20031;-43
2023/04/03 07:14:21;;;;;;;3.85;2.50;;;;;;;14.37;37.02;103350.03;5108207;28;20074;-40
2023/04/03 07:16:47;;;;;;;5.93;2.60;;;;;;;16.28;35.35;103345.97;5104077;28;20039;-41
2023/04/03 07:19:12;;;;;;;7.63;2.60;;;;;;;16.38;33.75;103345.38;5108537;28;20020;-39
2023/04/03 07:21:38;;;;;;;6.32;2.78;;;;;;;16.44;34.49;103347.31;5104585;28;20027;-39
2023/04/03 07:24:03;;;;;;;5.70;2.47;;;;;;;16.15;33.79;103351.72;5105776;28;20048;-40
2023/04/03 07:26:29;;;;;;;6.22;2.63;;;;;;;16.75;32.79;103357.88;5100730;28;20036;-39
2023/04/03 07:28:54;;;;;;;6.25;2.80;;;;;;;16.57;33.56;103358.22;5103171;28;20494;-40
2023/04/03 07:31:20;;;;;;;6.10;2.60;;;;;;;16.13;34.69;103359.56;5103396;28;20035;-39
2023/04/03 07:33:45;;;;;;;6.82;2.90;;;;;;;16.15;33.52;103359.63;5098598;28;20096;-39
2023/04/03 07:36:15;;;;;;;5.70;2.50;;;;;;;16.40;33.45;103362.13;5082782;28;20031;-41
2023/04/03 07:38:41;;;;;;;8.77;2.72;;;;;;;16.02;33.77;103360.09;5099188;28;20314;-45
2023/04/03 07:41:10;;;;;;;5.70;2.70;;;;;;;16.19;33.53;103361.50;5084001;28;20023;-39
2023/04/03 07:43:36;;;;;;;5.50;2.60;;;;;;;16.74;32.45;103360.47;5096309;28;20032;-40
2023/04/03 07:46:04;;;;;;;8.73;2.60;;;;;;;15.46;33.39;103368.78;5101919;28;20038;-39
2023/04/03 07:48:29;;;;;;;7.30;2.85;;;;;;;14.58;35.17;103371.81;5081586;28;20032;-41
2023/04/03 07:50:59;;;;;;;8.98;2.72;;;;;;;12.15;39.08;103383.41;5107669;28;20155;-39
2023/04/03 07:53:25;;;;;;;6.47;2.53;;;;;;;11.57;42.16;103384.94;5107051;28;20374;-40
2023/04/03 07:55:55;;;;;;;7.40;2.80;;;;;;;10.53;43.63;103383.03;5100032;28;20024;-39
2023/04/03 07:58:20;;;;;;;5.93;2.70;;;;;;;10.39;44.62;103377.06;5100063;28;20560;-41
2023/04/03 08:00:46;;;;;;;9.80;3.20;;;;;;;10.47;45.57;103374.88;5098075;28;20043;-39
2023/04/03 08:03:12;;;;;;;9.02;3.55;;;;;;;10.27;46.79;103383.31;5101460;28;20024;-38
2023/04/03 08:05:43;;;;;;;8.82;3.00;;;;;;;9.92;46.57;103394.38;5097264;28;20034;-39
2023/04/03 08:08:10;;;;;;;7.60;3.00;;;;;;;10.23;46.60;103394.41;5101625;28;20027;-46
2023/04/03 08:10:35;;;;;;;9.38;2.78;;;;;;;10.15;46.14;103402.66;5097380;28;20511;-42
2023/04/03 08:13:02;;;;;;;12.88;2.80;;;;;;;9.93;45.34;103396.19;5082502;28;20031;-41
2023/04/03 08:15:27;;;;;;;5.55;2.50;;;;;;;9.93;45.81;103397.09;5101250;28;20081;-44
2023/04/03 08:17:53;;;;;;;9.00;2.63;;;;;;;10.43;44.97;103401.63;5096495;28;20036;-47
2023/04/03 08:20:19;;;;;;;6.47;2.42;;;;;;;10.16;44.87;103406.16;5100880;28;20048;-47
2023/04/03 08:22:44;;;;;;;9.20;2.60;;;;;;;10.18;45.02;103401.97;5094739;28;20486;-44
2023/04/03 08:25:10;;;;;;;7.00;2.67;;;;;;;10.14;45.79;103407.78;5100673;28;20070;-45
2023/04/03 08:27:35;;;;;;;7.45;2.65;;;;;;;10.42;44.75;103398.09;5101344;28;20024;-45
2023/04/03 08:30:01;;;;;;;6.10;2.50;;;;;;;10.42;45.19;103402.41;5105344;28;20024;-44
2023/04/03 08:32:27;;;;;;;7.43;2.60;;;;;;;10.06;45.84;103407.34;5106142;28;20031;-43
2023/04/03 08:34:52;;;;;;;8.10;2.80;;;;;;;10.65;45.47;103406.25;5102885;28;20051;-45
2023/04/03 08:37:18;;;;;;;6.32;2.38;;;;;;;10.51;43.73;103402.91;5107073;28;21499;-45
2023/04/03 08:39:44;;;;;;;6.80;2.45;;;;;;;10.36;44.16;103397.78;5085691;28;20039;-46
2023/04/03 08:42:38;;;;;;;8.57;3.00;;;;;;;10.71;45.62;103398.75;5107985;28;20032;-48
2023/04/03 08:45:26;;;;;;;6.25;3.00;;;;;;;10.63;46.05;103398.34;5103431;28;20035;-47
2023/04/03 08:48:07;;;;;;;7.00;2.95;;;;;;;10.48;46.08;103406.25;5084945;28;20080;-46
2023/04/03 08:50:48;;;;;;;6.60;3.03;;;;;;;10.31;46.54;103408.75;5099956;28;20515;-48
2023/04/03 08:53:18;;;;;;;6.93;2.78;;;;;;;10.43;46.21;103409.44;5089120;28;20508;-45
2023/04/03 08:55:46;;;;;;;7.15;2.90;;;;;;;10.01;46.95;103408.81;5101788;28;20031;-45
2023/04/03 08:58:31;;;;;;;6.13;2.80;;;;;;;10.13;44.51;103413.81;5106827;28;20023;-44
2023/04/03 09:01:00;;;;;;;8.82;2.45;;;;;;;10.21;44.95;103411.66;5097253;28;20083;-47
2023/04/03 09:03:30;;;;;;;6.18;2.15;;;;;;;10.41;43.50;103400.63;5106171;28;20103;-45
2023/04/03 09:06:03;;;;;;;4.47;2.47;;;;;;;10.22;42.72;103393.50;5104224;28;20035;-45
2023/04/03 09:08:47;;;;;;;7.20;2.50;;;;;;;10.39;44.21;103389.19;5094755;28;20478;-48
2023/04/03 09:11:27;;;;;;;7.70;2.60;;;;;;;10.21;44.00;103393.41;5106256;28;20508;-45
2023/04/03 09:14:13;;;;;;;6.93;2.90;;;;;;;10.41;42.85;103398.91;5103575;28;20031;-45
2023/04/03 09:16:42;;;;;;;6.70;2.30;;;;;;;10.61;42.90;103394.78;5082768;28;20597;-45
2023/04/03 09:19:21;;;;;;;8.95;2.30;;;;;;;10.91;41.66;103385.94;5069558;28;20032;-45
2023/04/03 09:21:47;;;;;;;5.97;2.30;;;;;;;10.91;41.90;103393.78;5065047;28;20024;-45
2023/04/03 09:24:14;;;;;;;5.72;2.03;;;;;;;11.00;41.33;103393.34;5098595;28;20501;-47
2023/04/03 09:26:55;;;;;;;3.97;1.60;;;;;;;11.50;36.46;103398.50;5067525;28;20302;-45
2023/04/03 09:29:23;;;;;;;3.28;1.48;;;;;;;11.52;33.08;103382.91;5105689;28;20036;-45
2023/04/03 09:31:55;;;;;;;2.60;1.15;;;;;;;11.44;31.22;103379.91;5085130;28;20093;-45
2023/04/03 09:34:26;;;;;;;1.75;1.08;;;;;;;11.28;30.82;103393.03;5105522;28;20443;-45
2023/04/03 09:36:57;;;;;;;2.63;1.08;;;;;;;11.12;29.38;103374.78;5093090;28;20046;-45
2023/04/03 09:39:28;;;;;;;4.25;1.40;;;;;;;11.52;29.82;103375.09;5089345;28;20123;-46
2023/04/03 09:42:04;;;;;;;4.47;1.27;;;;;;;11.10;29.10;103364.25;5103929;28;20032;-44
2023/04/03 09:44:37;;;;;;;2.00;1.00;;;;;;;11.34;30.63;103365.50;5071316;28;20039;-45
2023/04/03 09:47:23;;;;;;;3.25;1.25;;;;;;;11.36;30.05;103352.53;5105350;28;20031;-47
2023/04/03 09:49:49;;;;;;;6.25;1.33;;;;;;;11.16;30.46;103355.88;5096755;28;21379;-46
2023/04/03 09:52:22;;;;;;;2.45;0.98;;;;;;;10.92;27.24;103356.38;5091012;28;20038;-45
2023/04/03 09:54:48;;;;;;;1.80;1.10;;;;;;;11.61;27.37;103365.97;5082999;28;20061;-45
2023/04/03 09:57:13;;;;;;;1.90;1.10;;;;;;;11.55;26.82;103355.22;5105492;28;20036;-46
2023/04/03 09:59:45;;;;;;;3.15;1.00;;;;;;;11.54;26.88;103360.34;5101133;28;20060;-45
2023/04/03 10:02:34;;;;;;;2.45;1.00;;;;;;;11.58;26.79;103355.38;5085990;28;20054;-44
2023/04/03 10:05:00;;;;;;;1.80;0.98;;;;;;;11.19;23.74;103354.31;5101618;28;20028;-46
2023/04/03 10:07:38;;;;;;;2.20;1.00;;;;;;;11.15;25.38;103341.03;5087164;28;20042;-45
2023/04/03 10:10:22;;;;;;;2.47;1.15;;;;;;;11.45;27.02;103347.75;5099932;28;20486;-44
2023/04/03 10:12:48;;;;;;;2.47;1.20;;;;;;;11.41;27.25;103345.78;5102760;28;20042;-45
2023/04/03 10:15:18;;;;;;;3.80;1.20;;;;;;;11.52;27.60;103343.75;5084794;28;20536;-44
2023/04/03 10:18:00;;;;;;;1.92;1.17;;;;;;;11.69;28.05;103340.22;5086354;28;20043;-44
2023/04/03 10:20:43;;;;;;;4.75;1.10;;;;;;;11.46;27.81;103339.13;5082853;28;20036;-46
2023/04/03 10:23:23;;;;;;;2.05;1.17;;;;;;;11.88;28.62;103342.03;5082199;28;20028;-46
2023/04/03 10:26:16;;;;;;;2.17;1.10;;;;;;;12.17;28.96;103329.47;5081233;28;20060;-46
2023/04/03 10:29:08;;;;;;;2.75;1.20;;;;;;;11.96;27.75;103330.19;5079182;28;20032;-44
2023/04/03 10:31:44;;;;;;;3.83;1.23;;;;;;;11.99;28.49;103332.97;5096696;28;20047;-44
2023/04/03 10:34:28;;;;;;;2.40;1.17;;;;;;;11.70;27.08;103332.47;5107236;28;20057;-44
2023/04/03 10:37:18;;;;;;;2.90;1.30;;;;;;;11.95;27.83;103326.69;5103105;28;20122;-44
2023/04/03 10:39:56;;;;;;;2.25;1.10;;;;;;;11.47;27.95;103327.81;5102749;28;20047;-43
2023/04/03 10:42:47;;;;;;;2.40;1.38;;;;;;;12.05;27.95;103321.06;5106772;28;20042;-42
2023/04/03 10:45:21;;;;;;;3.65;1.30;;;;;;;11.64;28.00;103328.66;5101604;28;20499;-45
2023/04/03 10:48:11;;;;;;;2.55;1.30;;;;;;;11.81;26.98;103332.09;5100240;28;20034;-45
2023/04/03 10:50:44;;;;;;;2.97;1.13;;;;;;;11.94;27.75;103326.63;5100567;28;20102;-46
2023/04/03 10:53:43;;;;;;;2.63;1.20;;;;;;;12.08;26.89;103323.81;5094158;28;20028;-46
2023/04/03 10:56:21;;;;;;;1.80;1.10;;;;;;;12.34;27.50;103325.00;5101999;28;20088;-46
2023/04/03 10:58:54;;;;;;;2.20;1.15;;;;;;;12.34;27.14;103321.50;5099945;28;20105;-44
2023/04/03 11:01:24;;;;;;;2.97;1.40;;;;;;;12.36;26.91;103317.22;5103889;28;20523;-45
2023/04/03 11:03:57;;;;;;;2.88;1.10;;;;;;;12.22;26.11;103316.59;5099725;28;20039;-44
2023/04/03 11:06:26;;;;;;;2.85;1.50;;;;;;;12.08;26.73;103315.97;5085764;28;20100;-44
2023/04/03 11:09:06;;;;;;;2.58;1.27;;;;;;;12.24;27.46;103324.53;5100319;28;20508;-43
2023/04/03 11:11:38;;;;;;;4.05;1.17;;;;;;;12.43;27.21;103307.13;5081366;28;20066;-42
2023/04/03 11:14:17;;;;;;;2.33;1.08;;;;;;;12.50;28.11;103310.91;5109041;28;20028;-44
2023/04/03 11:16:47;;;;;;;4.78;1.38;;;;;;;12.53;27.75;103308.41;5078304;28;20044;-45
2023/04/03 11:19:53;;;;;;;2.00;1.13;;;;;;;12.86;26.98;103308.97;5083789;28;20035;-45
2023/04/03 11:22:32;;;;;;;2.03;1.10;;;;;;;12.76;27.44;103312.00;5079805;28;20425;-43
2023/04/03 11:25:23;;;;;;;2.83;1.17;;;;;;;12.24;25.36;103296.66;5079877;28;20039;-44
2023/04/03 11:28:02;;;;;;;2.25;1.20;;;;;;;12.20;26.68;103298.22;5079991;28;25070;-44
2023/04/03 11:30:42;;;;;;;2.15;1.10;;;;;;;12.36;25.59;103293.69;5083840;28;20035;-50
2023/04/03 11:33:30;;;;;;;2.67;1.17;;;;;;;12.53;25.46;103304.06;5080734;28;20036;-44
2023/04/03 11:36:10;;;;;;;2.88;1.02;;;;;;;12.52;26.38;103291.81;5081853;28;20039;-43